KOTM/OTM METAR and TAF weather

Enter ICAO airport designator
Station Type Date Time Source
KOTM METAR 2020/07/06 22:53 UTC NOAA

KOTM 062253Z AUTO 15006KT 10SM FEW049 31/21 A2997 RMK AO2 SLP140 T03060206


Station Type Date Time Source
KOTM Decoded METAR 2020/07/06 22:53 UTC NOAA

OTTUMWA INDUSTRIAL AIRPORT, IA, United States (KOTM) 41-06N 092-27W 256M
Jul 06, 2020 - 06:53 PM EDT / 2020.07.06 2253 UTC
Wind: from the SSE (150 degrees) at 7 MPH (6 KT):0
Visibility: 10 mile(s):0
Sky conditions: mostly clear
Temperature: 87.1 F (30.6 C)
Dew Point: 69.1 F (20.6 C)
Relative Humidity: 55%
Pressure (altimeter): 29.97 in. Hg (1014 hPa)
ob: KOTM 062253Z AUTO 15006KT 10SM FEW049 31/21 A2997 RMK AO2 SLP140 T03060206
cycle: 23

Station Type Date Time Source
KOTM TAF 2020/07/06 18:51 UTC NOAA

TAF KOTM 061739Z 0618/0718 VRB03KT P6SM VCSH SCT050
FM070100 19003KT P6SM FEW180
FM071500 23005KT P6SM SCT050

Example: see airport list